sensor_id;sensor_type;location;lat;lon;timestamp;temperature;humidity
28715;DHT22;15886;49.170;14.572;2022-08-19T00:00:25;24.00;74.80
28715;DHT22;15886;49.170;14.572;2022-08-19T00:02:54;24.00;75.30
28715;DHT22;15886;49.170;14.572;2022-08-19T00:05:22;23.90;74.80
28715;DHT22;15886;49.170;14.572;2022-08-19T00:07:50;23.80;75.00
28715;DHT22;15886;49.170;14.572;2022-08-19T00:10:19;23.80;74.80
28715;DHT22;15886;49.170;14.572;2022-08-19T00:12:47;23.80;74.40
28715;DHT22;15886;49.170;14.572;2022-08-19T00:15:15;23.70;74.40
28715;DHT22;15886;49.170;14.572;2022-08-19T00:17:44;23.70;74.40
28715;DHT22;15886;49.170;14.572;2022-08-19T00:20:13;23.70;75.30
28715;DHT22;15886;49.170;14.572;2022-08-19T00:22:44;23.60;76.00
28715;DHT22;15886;49.170;14.572;2022-08-19T00:25:12;23.60;75.90
28715;DHT22;15886;49.170;14.572;2022-08-19T00:27:41;23.50;76.20
28715;DHT22;15886;49.170;14.572;2022-08-19T00:30:08;23.50;76.80
28715;DHT22;15886;49.170;14.572;2022-08-19T00:32:37;23.40;76.80
28715;DHT22;15886;49.170;14.572;2022-08-19T00:35:06;23.40;77.20
28715;DHT22;15886;49.170;14.572;2022-08-19T00:37:34;23.40;77.70
28715;DHT22;15886;49.170;14.572;2022-08-19T00:40:03;23.30;77.70
28715;DHT22;15886;49.170;14.572;2022-08-19T00:42:31;23.20;77.90
28715;DHT22;15886;49.170;14.572;2022-08-19T00:45:00;23.20;77.50
28715;DHT22;15886;49.170;14.572;2022-08-19T00:47:28;23.20;78.10
28715;DHT22;15886;49.170;14.572;2022-08-19T00:49:56;23.20;78.60
28715;DHT22;15886;49.170;14.572;2022-08-19T00:52:28;23.20;78.40
28715;DHT22;15886;49.170;14.572;2022-08-19T00:54:57;23.30;78.50
28715;DHT22;15886;49.170;14.572;2022-08-19T00:57:33;23.20;78.40
28715;DHT22;15886;49.170;14.572;2022-08-19T01:00:04;23.30;78.20
28715;DHT22;15886;49.170;14.572;2022-08-19T01:02:32;23.30;77.50
28715;DHT22;15886;49.170;14.572;2022-08-19T01:05:01;23.40;77.10
28715;DHT22;15886;49.170;14.572;2022-08-19T01:07:30;23.40;77.50
28715;DHT22;15886;49.170;14.572;2022-08-19T01:09:58;23.40;77.30
28715;DHT22;15886;49.170;14.572;2022-08-19T01:12:27;23.40;77.10
28715;DHT22;15886;49.170;14.572;2022-08-19T01:14:55;23.40;77.10
28715;DHT22;15886;49.170;14.572;2022-08-19T01:17:23;23.40;76.70
28715;DHT22;15886;49.170;14.572;2022-08-19T01:19:51;23.40;77.10
28715;DHT22;15886;49.170;14.572;2022-08-19T01:24:55;23.30;77.20
28715;DHT22;15886;49.170;14.572;2022-08-19T01:27:22;23.30;76.90
28715;DHT22;15886;49.170;14.572;2022-08-19T01:29:50;23.20;77.10
28715;DHT22;15886;49.170;14.572;2022-08-19T01:32:18;23.20;77.40
28715;DHT22;15886;49.170;14.572;2022-08-19T01:34:46;23.10;77.90
28715;DHT22;15886;49.170;14.572;2022-08-19T01:37:14;23.10;78.20
28715;DHT22;15886;49.170;14.572;2022-08-19T01:39:42;23.10;78.70
28715;DHT22;15886;49.170;14.572;2022-08-19T01:42:10;23.10;78.80
28715;DHT22;15886;49.170;14.572;2022-08-19T01:44:39;23.10;78.70
28715;DHT22;15886;49.170;14.572;2022-08-19T01:47:08;23.10;78.70
28715;DHT22;15886;49.170;14.572;2022-08-19T01:49:37;23.10;79.10
28715;DHT22;15886;49.170;14.572;2022-08-19T01:52:06;23.10;79.40
28715;DHT22;15886;49.170;14.572;2022-08-19T01:54:34;23.10;80.10
28715;DHT22;15886;49.170;14.572;2022-08-19T01:57:06;23.10;80.70
28715;DHT22;15886;49.170;14.572;2022-08-19T01:59:34;23.20;80.80
28715;DHT22;15886;49.170;14.572;2022-08-19T02:02:04;23.20;81.00
28715;DHT22;15886;49.170;14.572;2022-08-19T02:04:35;23.20;81.30
28715;DHT22;15886;49.170;14.572;2022-08-19T02:07:03;23.20;80.40
28715;DHT22;15886;49.170;14.572;2022-08-19T02:09:31;23.20;80.60
28715;DHT22;15886;49.170;14.572;2022-08-19T02:11:59;23.20;80.30
28715;DHT22;15886;49.170;14.572;2022-08-19T02:14:27;23.20;80.30
28715;DHT22;15886;49.170;14.572;2022-08-19T02:16:55;23.30;79.90
28715;DHT22;15886;49.170;14.572;2022-08-19T02:19:23;23.30;79.70
28715;DHT22;15886;49.170;14.572;2022-08-19T02:21:51;23.40;79.70
28715;DHT22;15886;49.170;14.572;2022-08-19T02:24:19;23.40;79.60
28715;DHT22;15886;49.170;14.572;2022-08-19T02:26:47;23.40;79.30
28715;DHT22;15886;49.170;14.572;2022-08-19T02:29:15;23.40;79.30
28715;DHT22;15886;49.170;14.572;2022-08-19T02:31:43;23.40;79.20
28715;DHT22;15886;49.170;14.572;2022-08-19T02:34:11;23.40;79.20
28715;DHT22;15886;49.170;14.572;2022-08-19T02:36:38;23.30;79.00
28715;DHT22;15886;49.170;14.572;2022-08-19T02:39:06;23.30;79.00
28715;DHT22;15886;49.170;14.572;2022-08-19T02:41:34;23.20;79.20
28715;DHT22;15886;49.170;14.572;2022-08-19T02:44:02;23.20;79.20
28715;DHT22;15886;49.170;14.572;2022-08-19T02:46:32;23.20;79.30
28715;DHT22;15886;49.170;14.572;2022-08-19T02:49:01;23.10;79.30
28715;DHT22;15886;49.170;14.572;2022-08-19T02:51:31;23.10;79.10
28715;DHT22;15886;49.170;14.572;2022-08-19T02:53:59;23.10;79.30
28715;DHT22;15886;49.170;14.572;2022-08-19T02:56:27;23.10;78.40
28715;DHT22;15886;49.170;14.572;2022-08-19T02:58:55;23.10;78.70
28715;DHT22;15886;49.170;14.572;2022-08-19T03:01:24;23.00;78.90
28715;DHT22;15886;49.170;14.572;2022-08-19T03:03:53;23.00;79.00
28715;DHT22;15886;49.170;14.572;2022-08-19T03:06:21;22.90;78.90
28715;DHT22;15886;49.170;14.572;2022-08-19T03:08:49;22.90;78.80
28715;DHT22;15886;49.170;14.572;2022-08-19T03:11:22;22.90;78.90
28715;DHT22;15886;49.170;14.572;2022-08-19T03:13:50;22.90;79.30
28715;DHT22;15886;49.170;14.572;2022-08-19T03:16:19;22.80;78.60
28715;DHT22;15886;49.170;14.572;2022-08-19T03:18:47;22.70;78.20
28715;DHT22;15886;49.170;14.572;2022-08-19T03:21:21;22.70;77.90
28715;DHT22;15886;49.170;14.572;2022-08-19T03:23:49;22.70;78.20
28715;DHT22;15886;49.170;14.572;2022-08-19T03:26:17;22.60;78.80
28715;DHT22;15886;49.170;14.572;2022-08-19T03:28:44;22.60;79.20
28715;DHT22;15886;49.170;14.572;2022-08-19T03:31:18;22.60;79.40
28715;DHT22;15886;49.170;14.572;2022-08-19T03:33:47;22.60;79.40
28715;DHT22;15886;49.170;14.572;2022-08-19T03:36:16;22.60;79.50
28715;DHT22;15886;49.170;14.572;2022-08-19T03:38:46;22.60;79.50
28715;DHT22;15886;49.170;14.572;2022-08-19T03:41:16;22.60;79.90
28715;DHT22;15886;49.170;14.572;2022-08-19T03:43:45;22.60;80.20
28715;DHT22;15886;49.170;14.572;2022-08-19T03:46:18;22.60;80.30
28715;DHT22;15886;49.170;14.572;2022-08-19T03:48:50;22.60;80.10
28715;DHT22;15886;49.170;14.572;2022-08-19T03:51:26;22.70;79.70
28715;DHT22;15886;49.170;14.572;2022-08-19T03:53:54;22.70;79.70
28715;DHT22;15886;49.170;14.572;2022-08-19T03:56:22;22.70;79.60
28715;DHT22;15886;49.170;14.572;2022-08-19T03:58:53;22.60;79.90
28715;DHT22;15886;49.170;14.572;2022-08-19T04:01:22;22.60;80.00
28715;DHT22;15886;49.170;14.572;2022-08-19T04:03:50;22.60;79.80
28715;DHT22;15886;49.170;14.572;2022-08-19T04:06:18;22.60;79.40
28715;DHT22;15886;49.170;14.572;2022-08-19T04:08:49;22.60;79.60
28715;DHT22;15886;49.170;14.572;2022-08-19T04:11:19;22.60;79.30
28715;DHT22;15886;49.170;14.572;2022-08-19T04:13:51;22.50;79.00
28715;DHT22;15886;49.170;14.572;2022-08-19T04:16:20;22.50;79.30
28715;DHT22;15886;49.170;14.572;2022-08-19T04:18:49;22.50;79.40
28715;DHT22;15886;49.170;14.572;2022-08-19T04:21:18;22.30;80.00
28715;DHT22;15886;49.170;14.572;2022-08-19T04:23:46;22.30;80.60
28715;DHT22;15886;49.170;14.572;2022-08-19T04:26:15;22.30;80.90
28715;DHT22;15886;49.170;14.572;2022-08-19T04:28:43;22.30;81.10
28715;DHT22;15886;49.170;14.572;2022-08-19T04:31:15;22.30;81.30
28715;DHT22;15886;49.170;14.572;2022-08-19T04:33:43;22.30;81.40
28715;DHT22;15886;49.170;14.572;2022-08-19T04:36:18;22.40;82.00
28715;DHT22;15886;49.170;14.572;2022-08-19T04:38:48;22.30;82.00
28715;DHT22;15886;49.170;14.572;2022-08-19T04:41:16;22.30;82.20
28715;DHT22;15886;49.170;14.572;2022-08-19T04:44:03;22.40;82.10
28715;DHT22;15886;49.170;14.572;2022-08-19T04:46:31;22.40;82.30
28715;DHT22;15886;49.170;14.572;2022-08-19T04:48:59;22.40;82.40
28715;DHT22;15886;49.170;14.572;2022-08-19T04:51:28;22.40;83.10
28715;DHT22;15886;49.170;14.572;2022-08-19T04:53:58;22.40;82.60
28715;DHT22;15886;49.170;14.572;2022-08-19T04:56:27;22.50;82.50
28715;DHT22;15886;49.170;14.572;2022-08-19T05:07:07;22.30;83.10
28715;DHT22;15886;49.170;14.572;2022-08-19T05:09:35;22.20;83.70
28715;DHT22;15886;49.170;14.572;2022-08-19T05:12:03;22.20;84.40
28715;DHT22;15886;49.170;14.572;2022-08-19T05:14:31;22.20;84.60
28715;DHT22;15886;49.170;14.572;2022-08-19T05:17:00;22.20;85.00
28715;DHT22;15886;49.170;14.572;2022-08-19T05:19:37;22.30;84.70
28715;DHT22;15886;49.170;14.572;2022-08-19T05:22:24;22.30;85.00
28715;DHT22;15886;49.170;14.572;2022-08-19T05:25:05;22.50;85.20
28715;DHT22;15886;49.170;14.572;2022-08-19T05:27:38;22.60;85.40
28715;DHT22;15886;49.170;14.572;2022-08-19T05:30:06;22.70;85.10
28715;DHT22;15886;49.170;14.572;2022-08-19T05:32:34;22.70;84.70
28715;DHT22;15886;49.170;14.572;2022-08-19T05:35:03;22.80;84.50
28715;DHT22;15886;49.170;14.572;2022-08-19T05:37:31;22.80;84.90
28715;DHT22;15886;49.170;14.572;2022-08-19T05:39:59;22.80;85.20
28715;DHT22;15886;49.170;14.572;2022-08-19T05:42:27;22.80;86.20
28715;DHT22;15886;49.170;14.572;2022-08-19T05:44:56;22.80;86.60
28715;DHT22;15886;49.170;14.572;2022-08-19T05:47:24;22.70;87.90
28715;DHT22;15886;49.170;14.572;2022-08-19T05:49:51;22.60;89.40
28715;DHT22;15886;49.170;14.572;2022-08-19T05:52:19;22.60;90.40
28715;DHT22;15886;49.170;14.572;2022-08-19T05:54:47;22.50;91.00
28715;DHT22;15886;49.170;14.572;2022-08-19T05:57:15;22.50;91.50
28715;DHT22;15886;49.170;14.572;2022-08-19T05:59:43;22.50;92.00
28715;DHT22;15886;49.170;14.572;2022-08-19T06:02:13;22.50;92.00
28715;DHT22;15886;49.170;14.572;2022-08-19T06:04:41;22.50;92.20
28715;DHT22;15886;49.170;14.572;2022-08-19T06:07:12;22.60;92.30
28715;DHT22;15886;49.170;14.572;2022-08-19T06:09:40;22.70;92.00
28715;DHT22;15886;49.170;14.572;2022-08-19T06:12:08;22.80;92.10
28715;DHT22;15886;49.170;14.572;2022-08-19T06:14:36;22.90;91.80
28715;DHT22;15886;49.170;14.572;2022-08-19T06:17:04;23.00;91.50
28715;DHT22;15886;49.170;14.572;2022-08-19T06:19:33;23.20;91.20
28715;DHT22;15886;49.170;14.572;2022-08-19T06:22:01;23.30;90.60
28715;DHT22;15886;49.170;14.572;2022-08-19T06:24:29;23.30;90.80
28715;DHT22;15886;49.170;14.572;2022-08-19T06:26:57;23.40;90.70
28715;DHT22;15886;49.170;14.572;2022-08-19T06:29:27;23.50;90.50
28715;DHT22;15886;49.170;14.572;2022-08-19T06:31:56;23.60;90.40
28715;DHT22;15886;49.170;14.572;2022-08-19T06:34:25;23.70;90.20
28715;DHT22;15886;49.170;14.572;2022-08-19T06:36:55;23.70;89.90
28715;DHT22;15886;49.170;14.572;2022-08-19T06:39:25;23.80;89.90
28715;DHT22;15886;49.170;14.572;2022-08-19T06:41:54;23.90;89.30
28715;DHT22;15886;49.170;14.572;2022-08-19T06:44:25;23.90;89.10
28715;DHT22;15886;49.170;14.572;2022-08-19T06:46:54;23.90;89.40
28715;DHT22;15886;49.170;14.572;2022-08-19T06:49:23;23.90;89.30
28715;DHT22;15886;49.170;14.572;2022-08-19T06:51:51;24.00;89.50
28715;DHT22;15886;49.170;14.572;2022-08-19T06:54:19;24.00;89.60
28715;DHT22;15886;49.170;14.572;2022-08-19T06:56:47;24.00;89.40
28715;DHT22;15886;49.170;14.572;2022-08-19T06:59:16;24.10;89.50
28715;DHT22;15886;49.170;14.572;2022-08-19T07:01:47;24.10;89.20
28715;DHT22;15886;49.170;14.572;2022-08-19T07:04:16;24.20;88.90
28715;DHT22;15886;49.170;14.572;2022-08-19T07:06:44;24.20;88.90
28715;DHT22;15886;49.170;14.572;2022-08-19T07:09:13;24.20;88.90
28715;DHT22;15886;49.170;14.572;2022-08-19T07:11:45;24.20;89.50
28715;DHT22;15886;49.170;14.572;2022-08-19T07:14:14;24.20;89.50
28715;DHT22;15886;49.170;14.572;2022-08-19T07:16:43;24.20;88.70
28715;DHT22;15886;49.170;14.572;2022-08-19T07:19:12;24.20;89.30
28715;DHT22;15886;49.170;14.572;2022-08-19T07:21:40;24.10;90.00
28715;DHT22;15886;49.170;14.572;2022-08-19T07:24:08;24.10;90.20
28715;DHT22;15886;49.170;14.572;2022-08-19T07:26:38;24.10;90.20
28715;DHT22;15886;49.170;14.572;2022-08-19T07:29:06;24.20;90.00
28715;DHT22;15886;49.170;14.572;2022-08-19T07:31:34;24.20;89.80
28715;DHT22;15886;49.170;14.572;2022-08-19T07:34:06;24.30;90.10
28715;DHT22;15886;49.170;14.572;2022-08-19T07:36:35;24.30;90.40
28715;DHT22;15886;49.170;14.572;2022-08-19T07:39:05;24.30;90.00
28715;DHT22;15886;49.170;14.572;2022-08-19T07:41:34;24.40;90.10
28715;DHT22;15886;49.170;14.572;2022-08-19T07:44:03;24.40;89.80
28715;DHT22;15886;49.170;14.572;2022-08-19T07:46:32;24.40;89.70
28715;DHT22;15886;49.170;14.572;2022-08-19T07:49:00;24.50;90.00
28715;DHT22;15886;49.170;14.572;2022-08-19T07:51:28;24.50;89.60
28715;DHT22;15886;49.170;14.572;2022-08-19T07:53:56;24.60;89.80
28715;DHT22;15886;49.170;14.572;2022-08-19T07:56:24;24.60;88.80
28715;DHT22;15886;49.170;14.572;2022-08-19T07:58:53;24.60;88.60
28715;DHT22;15886;49.170;14.572;2022-08-19T08:01:23;24.60;89.70
28715;DHT22;15886;49.170;14.572;2022-08-19T08:03:53;24.70;88.80
28715;DHT22;15886;49.170;14.572;2022-08-19T08:06:45;24.70;88.60
28715;DHT22;15886;49.170;14.572;2022-08-19T08:09:34;24.80;89.10
28715;DHT22;15886;49.170;14.572;2022-08-19T10:54:41;29.00;67.90
28715;DHT22;15886;49.170;14.572;2022-08-19T11:01:12;29.00;65.60
28715;DHT22;15886;49.170;14.572;2022-08-19T11:03:57;29.00;68.00
28715;DHT22;15886;49.170;14.572;2022-08-19T11:07:05;29.00;67.70
28715;DHT22;15886;49.170;14.572;2022-08-19T11:10:02;29.10;67.60
28715;DHT22;15886;49.170;14.572;2022-08-19T11:12:41;29.20;67.00
28715;DHT22;15886;49.170;14.572;2022-08-19T11:15:28;29.40;66.30
28715;DHT22;15886;49.170;14.572;2022-08-19T11:18:42;29.50;66.00
28715;DHT22;15886;49.170;14.572;2022-08-19T11:21:31;29.70;63.70
28715;DHT22;15886;49.170;14.572;2022-08-19T11:24:01;29.60;64.40
28715;DHT22;15886;49.170;14.572;2022-08-19T11:26:44;29.60;65.10
28715;DHT22;15886;49.170;14.572;2022-08-19T11:29:38;29.70;64.80
28715;DHT22;15886;49.170;14.572;2022-08-19T11:32:36;29.70;65.50
28715;DHT22;15886;49.170;14.572;2022-08-19T11:35:39;29.80;66.10
28715;DHT22;15886;49.170;14.572;2022-08-19T11:54:22;29.70;63.40
28715;DHT22;15886;49.170;14.572;2022-08-19T11:57:49;29.70;63.50
28715;DHT22;15886;49.170;14.572;2022-08-19T12:00:51;29.70;64.70
28715;DHT22;15886;49.170;14.572;2022-08-19T12:03:44;29.70;65.60
28715;DHT22;15886;49.170;14.572;2022-08-19T12:18:26;29.60;63.90
28715;DHT22;15886;49.170;14.572;2022-08-19T12:20:54;29.50;64.60
28715;DHT22;15886;49.170;14.572;2022-08-19T12:23:28;29.60;65.20
28715;DHT22;15886;49.170;14.572;2022-08-19T12:26:01;29.70;65.20
28715;DHT22;15886;49.170;14.572;2022-08-19T12:28:29;29.70;64.40
28715;DHT22;15886;49.170;14.572;2022-08-19T12:30:57;29.80;65.30
28715;DHT22;15886;49.170;14.572;2022-08-19T12:33:25;29.80;61.80
28715;DHT22;15886;49.170;14.572;2022-08-19T12:35:55;29.90;62.20
28715;DHT22;15886;49.170;14.572;2022-08-19T12:38:32;29.80;62.90
28715;DHT22;15886;49.170;14.572;2022-08-19T12:41:01;29.90;59.10
28715;DHT22;15886;49.170;14.572;2022-08-19T12:43:34;29.80;58.90
28715;DHT22;15886;49.170;14.572;2022-08-19T12:46:03;29.70;59.60
28715;DHT22;15886;49.170;14.572;2022-08-19T12:48:32;29.70;62.50
28715;DHT22;15886;49.170;14.572;2022-08-19T12:51:31;29.70;63.50
28715;DHT22;15886;49.170;14.572;2022-08-19T12:54:12;29.70;65.00
28715;DHT22;15886;49.170;14.572;2022-08-19T12:56:40;29.70;65.60
28715;DHT22;15886;49.170;14.572;2022-08-19T12:59:13;29.80;65.20
28715;DHT22;15886;49.170;14.572;2022-08-19T13:01:41;29.90;64.50
28715;DHT22;15886;49.170;14.572;2022-08-19T13:04:14;29.90;61.80
28715;DHT22;15886;49.170;14.572;2022-08-19T13:06:48;29.90;60.80
28715;DHT22;15886;49.170;14.572;2022-08-19T13:09:17;29.90;60.50
28715;DHT22;15886;49.170;14.572;2022-08-19T13:11:45;29.90;61.10
28715;DHT22;15886;49.170;14.572;2022-08-19T13:14:13;29.90;61.50
28715;DHT22;15886;49.170;14.572;2022-08-19T13:16:41;29.90;64.60
28715;DHT22;15886;49.170;14.572;2022-08-19T13:19:10;30.10;62.50
28715;DHT22;15886;49.170;14.572;2022-08-19T13:21:39;30.20;61.60
28715;DHT22;15886;49.170;14.572;2022-08-19T13:24:08;30.30;62.60
28715;DHT22;15886;49.170;14.572;2022-08-19T13:26:36;30.30;62.20
28715;DHT22;15886;49.170;14.572;2022-08-19T13:29:04;30.20;61.60
28715;DHT22;15886;49.170;14.572;2022-08-19T13:31:50;30.30;61.70
28715;DHT22;15886;49.170;14.572;2022-08-19T13:34:37;30.50;61.70
28715;DHT22;15886;49.170;14.572;2022-08-19T13:37:05;30.50;61.70
28715;DHT22;15886;49.170;14.572;2022-08-19T13:39:34;30.50;61.90
28715;DHT22;15886;49.170;14.572;2022-08-19T13:42:02;30.50;62.50
28715;DHT22;15886;49.170;14.572;2022-08-19T13:44:34;30.40;62.10
28715;DHT22;15886;49.170;14.572;2022-08-19T13:47:03;30.20;63.10
28715;DHT22;15886;49.170;14.572;2022-08-19T13:49:42;30.10;63.60
28715;DHT22;15886;49.170;14.572;2022-08-19T13:52:17;29.90;64.60
28715;DHT22;15886;49.170;14.572;2022-08-19T13:54:46;30.00;64.70
28715;DHT22;15886;49.170;14.572;2022-08-19T13:57:18;30.00;65.00
28715;DHT22;15886;49.170;14.572;2022-08-19T13:59:48;29.90;65.40
28715;DHT22;15886;49.170;14.572;2022-08-19T14:02:23;30.00;61.00
28715;DHT22;15886;49.170;14.572;2022-08-19T14:04:56;30.10;59.40
28715;DHT22;15886;49.170;14.572;2022-08-19T14:07:31;29.90;60.30
28715;DHT22;15886;49.170;14.572;2022-08-19T14:10:00;29.90;62.70
28715;DHT22;15886;49.170;14.572;2022-08-19T14:12:29;29.90;64.20
28715;DHT22;15886;49.170;14.572;2022-08-19T14:15:01;30.00;62.10
28715;DHT22;15886;49.170;14.572;2022-08-19T14:17:32;29.90;59.60
28715;DHT22;15886;49.170;14.572;2022-08-19T14:20:07;29.90;63.80
28715;DHT22;15886;49.170;14.572;2022-08-19T14:22:41;29.90;62.00
28715;DHT22;15886;49.170;14.572;2022-08-19T14:25:12;29.90;59.70
28715;DHT22;15886;49.170;14.572;2022-08-19T14:27:42;30.00;60.20
28715;DHT22;15886;49.170;14.572;2022-08-19T14:30:12;30.00;61.00
28715;DHT22;15886;49.170;14.572;2022-08-19T14:32:44;30.00;63.50
28715;DHT22;15886;49.170;14.572;2022-08-19T14:35:13;30.10;62.30
28715;DHT22;15886;49.170;14.572;2022-08-19T14:37:45;30.10;61.40
28715;DHT22;15886;49.170;14.572;2022-08-19T14:43:35;30.20;59.80
28715;DHT22;15886;49.170;14.572;2022-08-19T14:46:06;30.20;58.80
28715;DHT22;15886;49.170;14.572;2022-08-19T14:48:36;30.20;58.80
28715;DHT22;15886;49.170;14.572;2022-08-19T14:51:07;30.10;59.90
28715;DHT22;15886;49.170;14.572;2022-08-19T14:53:37;30.20;60.90
28715;DHT22;15886;49.170;14.572;2022-08-19T14:56:16;30.20;59.50
28715;DHT22;15886;49.170;14.572;2022-08-19T14:58:45;30.30;59.60
28715;DHT22;15886;49.170;14.572;2022-08-19T15:01:14;30.30;61.80
28715;DHT22;15886;49.170;14.572;2022-08-19T15:03:43;30.30;62.20
28715;DHT22;15886;49.170;14.572;2022-08-19T15:06:15;30.40;59.90
28715;DHT22;15886;49.170;14.572;2022-08-19T15:08:47;30.30;62.20
28715;DHT22;15886;49.170;14.572;2022-08-19T15:11:16;30.30;63.10
28715;DHT22;15886;49.170;14.572;2022-08-19T15:13:45;30.20;63.20
28715;DHT22;15886;49.170;14.572;2022-08-19T15:16:14;30.20;62.40
28715;DHT22;15886;49.170;14.572;2022-08-19T15:18:53;30.20;62.90
28715;DHT22;15886;49.170;14.572;2022-08-19T15:21:23;30.10;63.90
28715;DHT22;15886;49.170;14.572;2022-08-19T15:23:53;30.10;64.00
28715;DHT22;15886;49.170;14.572;2022-08-19T15:26:24;30.10;64.00
28715;DHT22;15886;49.170;14.572;2022-08-19T15:28:55;30.00;63.40
28715;DHT22;15886;49.170;14.572;2022-08-19T15:31:25;29.90;63.90
28715;DHT22;15886;49.170;14.572;2022-08-19T15:33:56;29.90;62.80
28715;DHT22;15886;49.170;14.572;2022-08-19T15:36:28;29.90;63.30
28715;DHT22;15886;49.170;14.572;2022-08-19T15:39:11;30.00;62.10
28715;DHT22;15886;49.170;14.572;2022-08-19T15:42:01;30.00;64.10
28715;DHT22;15886;49.170;14.572;2022-08-19T15:44:52;29.90;64.00
28715;DHT22;15886;49.170;14.572;2022-08-19T15:47:22;29.80;64.70
28715;DHT22;15886;49.170;14.572;2022-08-19T15:49:50;29.70;64.50
28715;DHT22;15886;49.170;14.572;2022-08-19T15:52:31;29.70;65.10
28715;DHT22;15886;49.170;14.572;2022-08-19T16:13:00;29.40;65.60
28715;DHT22;15886;49.170;14.572;2022-08-19T16:15:29;29.40;64.80
28715;DHT22;15886;49.170;14.572;2022-08-19T16:17:57;29.30;64.90
28715;DHT22;15886;49.170;14.572;2022-08-19T16:20:25;29.30;64.90
28715;DHT22;15886;49.170;14.572;2022-08-19T16:22:55;29.30;64.40
28715;DHT22;15886;49.170;14.572;2022-08-19T16:25:25;29.30;65.00
28715;DHT22;15886;49.170;14.572;2022-08-19T16:27:55;29.30;64.60
28715;DHT22;15886;49.170;14.572;2022-08-19T16:30:23;29.20;64.40
28715;DHT22;15886;49.170;14.572;2022-08-19T16:32:52;29.30;62.50
28715;DHT22;15886;49.170;14.572;2022-08-19T16:35:20;29.10;64.10
28715;DHT22;15886;49.170;14.572;2022-08-19T16:37:47;28.50;71.80
28715;DHT22;15886;49.170;14.572;2022-08-19T16:40:15;27.80;73.10
